sensor_id;sensor_type;location;lat;lon;timestamp;P1;durP1;ratioP1;P2;durP2;ratioP2
21569;SDS011;57598;50.888;4.746;2023-03-01T00:07:03;21.75;;;20.55;;
21569;SDS011;57598;50.888;4.746;2023-03-01T00:09:43;21.70;;;20.50;;
21569;SDS011;57598;50.888;4.746;2023-03-01T00:12:11;22.73;;;21.42;;
21569;SDS011;57598;50.888;4.746;2023-03-01T00:14:43;21.60;;;20.40;;
21569;SDS011;57598;50.888;4.746;2023-03-01T00:17:12;21.77;;;20.58;;
21569;SDS011;57598;50.888;4.746;2023-03-01T00:19:40;22.45;;;21.15;;
21569;SDS011;57598;50.888;4.746;2023-03-01T00:22:09;22.15;;;20.88;;
21569;SDS011;57598;50.888;4.746;2023-03-01T00:24:44;22.80;;;21.50;;
21569;SDS011;57598;50.888;4.746;2023-03-01T00:27:12;22.80;;;21.50;;
21569;SDS011;57598;50.888;4.746;2023-03-01T00:29:40;22.73;;;21.42;;
21569;SDS011;57598;50.888;4.746;2023-03-01T00:32:08;23.75;;;22.38;;
21569;SDS011;57598;50.888;4.746;2023-03-01T00:34:39;22.55;;;21.25;;
21569;SDS011;57598;50.888;4.746;2023-03-01T00:37:08;21.95;;;20.75;;
21569;SDS011;57598;50.888;4.746;2023-03-01T00:39:56;22.10;;;20.88;;
21569;SDS011;57598;50.888;4.746;2023-03-01T00:45:46;23.10;;;21.80;;
21569;SDS011;57598;50.888;4.746;2023-03-01T00:48:28;22.50;;;21.20;;
21569;SDS011;57598;50.888;4.746;2023-03-01T00:51:23;24.00;;;22.60;;
21569;SDS011;57598;50.888;4.746;2023-03-01T00:53:53;23.10;;;21.70;;
21569;SDS011;57598;50.888;4.746;2023-03-01T00:56:23;24.77;;;23.38;;
21569;SDS011;57598;50.888;4.746;2023-03-01T00:58:51;22.80;;;21.50;;
21569;SDS011;57598;50.888;4.746;2023-03-01T01:01:21;22.55;;;21.25;;
21569;SDS011;57598;50.888;4.746;2023-03-01T01:03:57;23.13;;;21.83;;
21569;SDS011;57598;50.888;4.746;2023-03-01T01:06:26;23.25;;;21.95;;
21569;SDS011;57598;50.888;4.746;2023-03-01T01:09:04;24.30;;;22.90;;
21569;SDS011;57598;50.888;4.746;2023-03-01T01:14:28;23.02;;;21.73;;
21569;SDS011;57598;50.888;4.746;2023-03-01T01:17:10;22.95;;;21.65;;
21569;SDS011;57598;50.888;4.746;2023-03-01T01:19:58;24.08;;;22.67;;
21569;SDS011;57598;50.888;4.746;2023-03-01T01:22:28;23.23;;;21.92;;
21569;SDS011;57598;50.888;4.746;2023-03-01T01:25:04;22.90;;;21.60;;
21569;SDS011;57598;50.888;4.746;2023-03-01T01:27:34;23.15;;;21.85;;
21569;SDS011;57598;50.888;4.746;2023-03-01T01:30:05;23.38;;;22.08;;
21569;SDS011;57598;50.888;4.746;2023-03-01T01:32:49;23.30;;;22.00;;
21569;SDS011;57598;50.888;4.746;2023-03-01T01:35:21;23.77;;;22.48;;
21569;SDS011;57598;50.888;4.746;2023-03-01T01:37:49;24.08;;;22.70;;
21569;SDS011;57598;50.888;4.746;2023-03-01T01:40:42;23.40;;;22.10;;
21569;SDS011;57598;50.888;4.746;2023-03-01T01:43:13;23.55;;;22.25;;
21569;SDS011;57598;50.888;4.746;2023-03-01T01:45:47;24.85;;;23.45;;
21569;SDS011;57598;50.888;4.746;2023-03-01T01:48:18;24.48;;;23.08;;
21569;SDS011;57598;50.888;4.746;2023-03-01T01:50:57;25.02;;;23.52;;
21569;SDS011;57598;50.888;4.746;2023-03-01T01:53:40;24.25;;;22.85;;
21569;SDS011;57598;50.888;4.746;2023-03-01T01:56:10;24.60;;;23.20;;
21569;SDS011;57598;50.888;4.746;2023-03-01T01:58:47;24.70;;;23.30;;
21569;SDS011;57598;50.888;4.746;2023-03-01T02:01:25;24.35;;;22.95;;
21569;SDS011;57598;50.888;4.746;2023-03-01T02:03:59;25.73;;;24.27;;
21569;SDS011;57598;50.888;4.746;2023-03-01T02:06:31;24.25;;;22.85;;
21569;SDS011;57598;50.888;4.746;2023-03-01T02:09:02;24.88;;;23.48;;
21569;SDS011;57598;50.888;4.746;2023-03-01T02:11:44;24.33;;;22.92;;
21569;SDS011;57598;50.888;4.746;2023-03-01T02:14:23;24.63;;;23.23;;
21569;SDS011;57598;50.888;4.746;2023-03-01T02:16:55;24.55;;;23.15;;
21569;SDS011;57598;50.888;4.746;2023-03-01T02:19:33;25.00;;;23.60;;
21569;SDS011;57598;50.888;4.746;2023-03-01T02:22:17;24.75;;;23.35;;
21569;SDS011;57598;50.888;4.746;2023-03-01T02:24:49;27.35;;;25.85;;
21569;SDS011;57598;50.888;4.746;2023-03-01T02:27:29;24.92;;;23.52;;
21569;SDS011;57598;50.888;4.746;2023-03-01T02:45:27;28.45;;;26.75;;
21569;SDS011;57598;50.888;4.746;2023-03-01T02:47:55;25.63;;;24.23;;
21569;SDS011;57598;50.888;4.746;2023-03-01T02:52:56;26.10;;;24.60;;
21569;SDS011;57598;50.888;4.746;2023-03-01T02:55:36;25.55;;;24.15;;
21569;SDS011;57598;50.888;4.746;2023-03-01T03:15:48;26.40;;;24.90;;
21569;SDS011;57598;50.888;4.746;2023-03-01T03:18:42;28.25;;;26.65;;
21569;SDS011;57598;50.888;4.746;2023-03-01T03:21:15;26.65;;;25.15;;
21569;SDS011;57598;50.888;4.746;2023-03-01T03:23:48;27.95;;;26.33;;
21569;SDS011;57598;50.888;4.746;2023-03-01T03:26:27;27.40;;;25.80;;
21569;SDS011;57598;50.888;4.746;2023-03-01T03:29:10;27.08;;;25.58;;
21569;SDS011;57598;50.888;4.746;2023-03-01T03:40:22;27.55;;;25.95;;
21569;SDS011;57598;50.888;4.746;2023-03-01T03:42:52;27.50;;;25.90;;
21569;SDS011;57598;50.888;4.746;2023-03-01T04:03:32;27.45;;;25.95;;
21569;SDS011;57598;50.888;4.746;2023-03-01T04:06:00;27.63;;;26.02;;
21569;SDS011;57598;50.888;4.746;2023-03-01T04:08:29;27.23;;;25.73;;
21569;SDS011;57598;50.888;4.746;2023-03-01T04:10:57;28.75;;;27.15;;
21569;SDS011;57598;50.888;4.746;2023-03-01T04:13:25;27.98;;;26.35;;
21569;SDS011;57598;50.888;4.746;2023-03-01T04:15:52;27.45;;;25.85;;
21569;SDS011;57598;50.888;4.746;2023-03-01T04:18:22;27.95;;;26.35;;
21569;SDS011;57598;50.888;4.746;2023-03-01T04:20:52;28.30;;;26.70;;
21569;SDS011;57598;50.888;4.746;2023-03-01T04:23:20;28.90;;;27.30;;
21569;SDS011;57598;50.888;4.746;2023-03-01T04:25:48;27.30;;;25.80;;
21569;SDS011;57598;50.888;4.746;2023-03-01T04:28:20;27.60;;;26.00;;
21569;SDS011;57598;50.888;4.746;2023-03-01T04:30:49;26.63;;;25.13;;
21569;SDS011;57598;50.888;4.746;2023-03-01T04:33:17;27.05;;;25.55;;
21569;SDS011;57598;50.888;4.746;2023-03-01T04:35:45;28.42;;;26.83;;
21569;SDS011;57598;50.888;4.746;2023-03-01T04:38:15;27.65;;;26.05;;
21569;SDS011;57598;50.888;4.746;2023-03-01T04:40:43;28.00;;;26.40;;
21569;SDS011;57598;50.888;4.746;2023-03-01T04:43:10;29.67;;;27.98;;
21569;SDS011;57598;50.888;4.746;2023-03-01T04:45:39;28.50;;;26.90;;
21569;SDS011;57598;50.888;4.746;2023-03-01T04:50:53;29.50;;;27.80;;
21569;SDS011;57598;50.888;4.746;2023-03-01T04:53:22;29.50;;;27.80;;
21569;SDS011;57598;50.888;4.746;2023-03-01T04:55:50;28.08;;;26.48;;
21569;SDS011;57598;50.888;4.746;2023-03-01T04:58:26;30.40;;;28.50;;
21569;SDS011;57598;50.888;4.746;2023-03-01T05:01:27;29.05;;;27.35;;
21569;SDS011;57598;50.888;4.746;2023-03-01T05:04:16;28.75;;;27.15;;
21569;SDS011;57598;50.888;4.746;2023-03-01T05:25:13;28.70;;;27.10;;
21569;SDS011;57598;50.888;4.746;2023-03-01T05:27:40;29.38;;;27.50;;
21569;SDS011;57598;50.888;4.746;2023-03-01T05:30:08;28.65;;;27.00;;
21569;SDS011;57598;50.888;4.746;2023-03-01T05:32:40;28.92;;;27.33;;
21569;SDS011;57598;50.888;4.746;2023-03-01T05:35:09;31.08;;;29.27;;
21569;SDS011;57598;50.888;4.746;2023-03-01T05:37:38;28.50;;;26.90;;
21569;SDS011;57598;50.888;4.746;2023-03-01T05:40:07;30.17;;;28.40;;
21569;SDS011;57598;50.888;4.746;2023-03-01T05:42:42;28.52;;;26.92;;
21569;SDS011;57598;50.888;4.746;2023-03-01T05:45:10;29.40;;;27.70;;
21569;SDS011;57598;50.888;4.746;2023-03-01T05:47:38;31.42;;;29.52;;
21569;SDS011;57598;50.888;4.746;2023-03-01T05:50:09;30.88;;;28.98;;
21569;SDS011;57598;50.888;4.746;2023-03-01T05:52:37;29.45;;;27.75;;
21569;SDS011;57598;50.888;4.746;2023-03-01T05:55:05;29.23;;;27.63;;
21569;SDS011;57598;50.888;4.746;2023-03-01T05:57:33;28.73;;;27.13;;
21569;SDS011;57598;50.888;4.746;2023-03-01T06:00:02;31.65;;;29.70;;
21569;SDS011;57598;50.888;4.746;2023-03-01T06:02:31;30.67;;;28.77;;
21569;SDS011;57598;50.888;4.746;2023-03-01T06:04:58;29.38;;;27.70;;
21569;SDS011;57598;50.888;4.746;2023-03-01T06:07:36;29.58;;;27.88;;
21569;SDS011;57598;50.888;4.746;2023-03-01T06:10:04;29.95;;;28.17;;
21569;SDS011;57598;50.888;4.746;2023-03-01T06:12:32;29.88;;;28.17;;
21569;SDS011;57598;50.888;4.746;2023-03-01T06:15:01;28.95;;;27.35;;
21569;SDS011;57598;50.888;4.746;2023-03-01T06:17:30;34.78;;;32.78;;
21569;SDS011;57598;50.888;4.746;2023-03-01T06:19:58;35.75;;;33.78;;
21569;SDS011;57598;50.888;4.746;2023-03-01T06:22:29;28.45;;;26.85;;
21569;SDS011;57598;50.888;4.746;2023-03-01T06:24:58;29.38;;;27.60;;
21569;SDS011;57598;50.888;4.746;2023-03-01T06:27:27;28.60;;;27.00;;
21569;SDS011;57598;50.888;4.746;2023-03-01T06:30:08;32.53;;;30.65;;
21569;SDS011;57598;50.888;4.746;2023-03-01T06:32:37;28.95;;;27.35;;
21569;SDS011;57598;50.888;4.746;2023-03-01T06:35:13;29.10;;;27.50;;
21569;SDS011;57598;50.888;4.746;2023-03-01T06:37:43;28.95;;;27.35;;
21569;SDS011;57598;50.888;4.746;2023-03-01T06:40:11;31.20;;;29.20;;
21569;SDS011;57598;50.888;4.746;2023-03-01T06:42:47;29.15;;;27.55;;
21569;SDS011;57598;50.888;4.746;2023-03-01T06:45:27;29.05;;;27.45;;
21569;SDS011;57598;50.888;4.746;2023-03-01T06:48:01;32.30;;;30.20;;
21569;SDS011;57598;50.888;4.746;2023-03-01T06:50:37;28.67;;;27.08;;
21569;SDS011;57598;50.888;4.746;2023-03-01T06:53:10;28.35;;;26.75;;
21569;SDS011;57598;50.888;4.746;2023-03-01T06:55:40;29.98;;;28.25;;
21569;SDS011;57598;50.888;4.746;2023-03-01T06:58:15;30.08;;;28.38;;
21569;SDS011;57598;50.888;4.746;2023-03-01T07:00:47;28.93;;;27.33;;
21569;SDS011;57598;50.888;4.746;2023-03-01T07:03:16;28.20;;;26.60;;
21569;SDS011;57598;50.888;4.746;2023-03-01T07:05:44;28.15;;;26.60;;
21569;SDS011;57598;50.888;4.746;2023-03-01T07:08:20;27.48;;;25.98;;
21569;SDS011;57598;50.888;4.746;2023-03-01T07:11:01;28.52;;;26.92;;
21569;SDS011;57598;50.888;4.746;2023-03-01T07:13:29;27.00;;;25.50;;
21569;SDS011;57598;50.888;4.746;2023-03-01T07:16:14;26.15;;;24.75;;
21569;SDS011;57598;50.888;4.746;2023-03-01T07:18:48;26.85;;;25.35;;
21569;SDS011;57598;50.888;4.746;2023-03-01T07:21:31;27.60;;;26.10;;
21569;SDS011;57598;50.888;4.746;2023-03-01T07:23:59;30.13;;;28.00;;
21569;SDS011;57598;50.888;4.746;2023-03-01T07:26:29;26.52;;;25.02;;
21569;SDS011;57598;50.888;4.746;2023-03-01T07:29:00;27.48;;;25.92;;
21569;SDS011;57598;50.888;4.746;2023-03-01T07:31:32;27.30;;;25.63;;
21569;SDS011;57598;50.888;4.746;2023-03-01T07:34:00;26.90;;;25.27;;
21569;SDS011;57598;50.888;4.746;2023-03-01T07:36:28;25.35;;;23.85;;
21569;SDS011;57598;50.888;4.746;2023-03-01T07:38:56;23.77;;;22.48;;
21569;SDS011;57598;50.888;4.746;2023-03-01T07:41:33;23.38;;;22.08;;
21569;SDS011;57598;50.888;4.746;2023-03-01T07:44:01;22.83;;;21.45;;
21569;SDS011;57598;50.888;4.746;2023-03-01T07:46:33;23.15;;;21.70;;
21569;SDS011;57598;50.888;4.746;2023-03-01T07:49:17;24.23;;;22.83;;
21569;SDS011;57598;50.888;4.746;2023-03-01T07:51:57;21.30;;;20.00;;
21569;SDS011;57598;50.888;4.746;2023-03-01T07:54:30;20.33;;;19.13;;
21569;SDS011;57598;50.888;4.746;2023-03-01T09:23:02;20.98;;;19.67;;
21569;SDS011;57598;50.888;4.746;2023-03-01T09:25:29;22.23;;;20.77;;
21569;SDS011;57598;50.888;4.746;2023-03-01T09:27:57;21.92;;;20.52;;
21569;SDS011;57598;50.888;4.746;2023-03-01T09:30:24;21.75;;;20.35;;
21569;SDS011;57598;50.888;4.746;2023-03-01T09:32:52;22.80;;;21.23;;
21569;SDS011;57598;50.888;4.746;2023-03-01T09:35:23;20.95;;;19.75;;
21569;SDS011;57598;50.888;4.746;2023-03-01T09:37:53;25.50;;;23.60;;
21569;SDS011;57598;50.888;4.746;2023-03-01T09:40:23;20.75;;;19.45;;
21569;SDS011;57598;50.888;4.746;2023-03-01T09:42:53;20.77;;;19.57;;
21569;SDS011;57598;50.888;4.746;2023-03-01T09:45:27;20.77;;;19.58;;
21569;SDS011;57598;50.888;4.746;2023-03-01T09:47:54;23.08;;;21.60;;
21569;SDS011;57598;50.888;4.746;2023-03-01T09:50:23;22.13;;;20.77;;
21569;SDS011;57598;50.888;4.746;2023-03-01T09:53:00;22.27;;;20.92;;
21569;SDS011;57598;50.888;4.746;2023-03-01T09:55:31;23.95;;;22.30;;
21569;SDS011;57598;50.888;4.746;2023-03-01T09:58:01;27.95;;;25.88;;
21569;SDS011;57598;50.888;4.746;2023-03-01T10:00:31;27.08;;;25.15;;
21569;SDS011;57598;50.888;4.746;2023-03-01T10:03:02;20.80;;;19.58;;
21569;SDS011;57598;50.888;4.746;2023-03-01T10:05:37;22.20;;;20.80;;
21569;SDS011;57598;50.888;4.746;2023-03-01T10:08:14;22.63;;;21.23;;
21569;SDS011;57598;50.888;4.746;2023-03-01T10:10:47;25.23;;;23.33;;
21569;SDS011;57598;50.888;4.746;2023-03-01T10:13:17;25.83;;;24.00;;
21569;SDS011;57598;50.888;4.746;2023-03-01T10:18:14;26.90;;;24.85;;
21569;SDS011;57598;50.888;4.746;2023-03-01T10:20:44;22.67;;;21.20;;
21569;SDS011;57598;50.888;4.746;2023-03-01T10:23:13;23.40;;;21.73;;
21569;SDS011;57598;50.888;4.746;2023-03-01T10:25:47;23.17;;;21.67;;
21569;SDS011;57598;50.888;4.746;2023-03-01T10:28:17;22.55;;;21.05;;
21569;SDS011;57598;50.888;4.746;2023-03-01T10:30:47;22.35;;;20.95;;
21569;SDS011;57598;50.888;4.746;2023-03-01T10:33:16;25.38;;;23.25;;
21569;SDS011;57598;50.888;4.746;2023-03-01T10:35:44;22.00;;;20.50;;
21569;SDS011;57598;50.888;4.746;2023-03-01T10:38:12;24.10;;;22.38;;
21569;SDS011;57598;50.888;4.746;2023-03-01T10:40:51;22.05;;;20.52;;
21569;SDS011;57598;50.888;4.746;2023-03-01T10:43:20;22.17;;;20.38;;
21569;SDS011;57598;50.888;4.746;2023-03-01T10:45:48;24.10;;;22.25;;
21569;SDS011;57598;50.888;4.746;2023-03-01T10:48:16;22.38;;;20.85;;
21569;SDS011;57598;50.888;4.746;2023-03-01T10:50:49;23.10;;;21.48;;
21569;SDS011;57598;50.888;4.746;2023-03-01T10:53:21;22.48;;;20.48;;
21569;SDS011;57598;50.888;4.746;2023-03-01T10:55:56;21.73;;;20.40;;
21569;SDS011;57598;50.888;4.746;2023-03-01T10:58:25;24.30;;;22.25;;
21569;SDS011;57598;50.888;4.746;2023-03-01T11:00:54;24.40;;;22.48;;
21569;SDS011;57598;50.888;4.746;2023-03-01T11:03:22;23.25;;;21.70;;
21569;SDS011;57598;50.888;4.746;2023-03-01T11:05:54;22.88;;;21.42;;
21569;SDS011;57598;50.888;4.746;2023-03-01T11:08:32;23.35;;;21.75;;
21569;SDS011;57598;50.888;4.746;2023-03-01T11:11:07;24.83;;;23.17;;
21569;SDS011;57598;50.888;4.746;2023-03-01T11:13:39;24.10;;;22.33;;
21569;SDS011;57598;50.888;4.746;2023-03-01T11:16:14;25.92;;;24.17;;
21569;SDS011;57598;50.888;4.746;2023-03-01T11:18:41;26.23;;;24.40;;
21569;SDS011;57598;50.888;4.746;2023-03-01T11:21:09;25.23;;;23.33;;
21569;SDS011;57598;50.888;4.746;2023-03-01T11:23:36;22.25;;;20.77;;
21569;SDS011;57598;50.888;4.746;2023-03-01T11:26:05;23.75;;;22.15;;
21569;SDS011;57598;50.888;4.746;2023-03-01T11:28:33;23.58;;;21.67;;
21569;SDS011;57598;50.888;4.746;2023-03-01T11:31:03;20.50;;;19.25;;
21569;SDS011;57598;50.888;4.746;2023-03-01T11:33:34;23.77;;;21.55;;
21569;SDS011;57598;50.888;4.746;2023-03-01T11:36:04;20.38;;;19.17;;
21569;SDS011;57598;50.888;4.746;2023-03-01T11:38:34;26.25;;;24.00;;
21569;SDS011;57598;50.888;4.746;2023-03-01T11:41:04;22.08;;;20.08;;
21569;SDS011;57598;50.888;4.746;2023-03-01T11:43:36;21.15;;;19.77;;
21569;SDS011;57598;50.888;4.746;2023-03-01T11:49:00;22.63;;;21.23;;
21569;SDS011;57598;50.888;4.746;2023-03-01T11:51:37;21.73;;;20.23;;
21569;SDS011;57598;50.888;4.746;2023-03-01T11:54:18;23.80;;;22.05;;
21569;SDS011;57598;50.888;4.746;2023-03-01T11:56:50;24.05;;;22.48;;
21569;SDS011;57598;50.888;4.746;2023-03-01T11:59:31;25.42;;;22.73;;
21569;SDS011;57598;50.888;4.746;2023-03-01T12:02:12;22.65;;;21.05;;
21569;SDS011;57598;50.888;4.746;2023-03-01T12:04:52;27.55;;;25.55;;
21569;SDS011;57598;50.888;4.746;2023-03-01T12:07:21;19.67;;;18.48;;
21569;SDS011;57598;50.888;4.746;2023-03-01T12:10:05;21.15;;;19.75;;
21569;SDS011;57598;50.888;4.746;2023-03-01T12:12:37;22.80;;;21.10;;
21569;SDS011;57598;50.888;4.746;2023-03-01T12:15:25;23.00;;;21.52;;
21569;SDS011;57598;50.888;4.746;2023-03-01T12:18:03;21.63;;;20.23;;
21569;SDS011;57598;50.888;4.746;2023-03-01T12:20:36;22.88;;;21.17;;
21569;SDS011;57598;50.888;4.746;2023-03-01T12:23:19;20.60;;;19.37;;
21569;SDS011;57598;50.888;4.746;2023-03-01T12:25:48;21.25;;;19.80;;
21569;SDS011;57598;50.888;4.746;2023-03-01T12:28:25;24.75;;;22.42;;
21569;SDS011;57598;50.888;4.746;2023-03-01T12:33:35;23.85;;;22.15;;
21569;SDS011;57598;50.888;4.746;2023-03-01T12:36:19;22.02;;;20.63;;
21569;SDS011;57598;50.888;4.746;2023-03-01T12:38:50;22.63;;;20.92;;
21569;SDS011;57598;50.888;4.746;2023-03-01T12:41:29;23.33;;;21.63;;
21569;SDS011;57598;50.888;4.746;2023-03-01T12:44:07;23.17;;;21.52;;
21569;SDS011;57598;50.888;4.746;2023-03-01T12:49:23;22.02;;;20.60;;
21569;SDS011;57598;50.888;4.746;2023-03-01T12:51:56;20.30;;;18.98;;
21569;SDS011;57598;50.888;4.746;2023-03-01T12:54:26;26.27;;;24.38;;
21569;SDS011;57598;50.888;4.746;2023-03-01T12:56:54;21.40;;;20.10;;
21569;SDS011;57598;50.888;4.746;2023-03-01T12:59:24;21.63;;;20.20;;
21569;SDS011;57598;50.888;4.746;2023-03-01T13:01:55;23.83;;;22.13;;
21569;SDS011;57598;50.888;4.746;2023-03-01T13:04:27;24.33;;;22.52;;
21569;SDS011;57598;50.888;4.746;2023-03-01T13:07:01;21.38;;;19.77;;
21569;SDS011;57598;50.888;4.746;2023-03-01T13:09:31;24.42;;;22.52;;
21569;SDS011;57598;50.888;4.746;2023-03-01T13:12:01;24.23;;;22.58;;
21569;SDS011;57598;50.888;4.746;2023-03-01T13:14:35;22.13;;;20.73;;
21569;SDS011;57598;50.888;4.746;2023-03-01T13:17:03;22.50;;;20.88;;
21569;SDS011;57598;50.888;4.746;2023-03-01T13:19:30;19.42;;;18.33;;
21569;SDS011;57598;50.888;4.746;2023-03-01T13:22:24;23.25;;;21.55;;
21569;SDS011;57598;50.888;4.746;2023-03-01T13:24:49;20.88;;;19.35;;
21569;SDS011;57598;50.888;4.746;2023-03-01T13:27:27;20.75;;;19.35;;
21569;SDS011;57598;50.888;4.746;2023-03-01T13:29:56;20.17;;;19.00;;
21569;SDS011;57598;50.888;4.746;2023-03-01T13:32:28;20.23;;;19.02;;
21569;SDS011;57598;50.888;4.746;2023-03-01T13:34:58;22.23;;;20.90;;
21569;SDS011;57598;50.888;4.746;2023-03-01T13:42:56;21.63;;;20.17;;
21569;SDS011;57598;50.888;4.746;2023-03-01T13:45:26;21.30;;;19.90;;
21569;SDS011;57598;50.888;4.746;2023-03-01T13:48:01;19.58;;;18.38;;
21569;SDS011;57598;50.888;4.746;2023-03-01T13:50:32;20.48;;;19.27;;
21569;SDS011;57598;50.888;4.746;2023-03-01T13:53:01;19.88;;;18.65;;
21569;SDS011;57598;50.888;4.746;2023-03-01T13:55:32;23.70;;;22.05;;
21569;SDS011;57598;50.888;4.746;2023-03-01T13:58:03;21.15;;;19.85;;
21569;SDS011;57598;50.888;4.746;2023-03-01T14:00:32;23.25;;;21.77;;
21569;SDS011;57598;50.888;4.746;2023-03-01T14:03:04;20.15;;;18.95;;
21569;SDS011;57598;50.888;4.746;2023-03-01T14:05:32;22.77;;;21.13;;
21569;SDS011;57598;50.888;4.746;2023-03-01T14:08:01;24.42;;;22.38;;
21569;SDS011;57598;50.888;4.746;2023-03-01T14:10:29;22.27;;;20.77;;
21569;SDS011;57598;50.888;4.746;2023-03-01T14:13:02;26.47;;;21.07;;
21569;SDS011;57598;50.888;4.746;2023-03-01T14:15:32;20.83;;;19.52;;
21569;SDS011;57598;50.888;4.746;2023-03-01T14:18:01;23.55;;;21.70;;
21569;SDS011;57598;50.888;4.746;2023-03-01T14:20:32;23.07;;;21.43;;
21569;SDS011;57598;50.888;4.746;2023-03-01T14:23:01;20.40;;;19.17;;
21569;SDS011;57598;50.888;4.746;2023-03-01T14:25:29;24.65;;;22.42;;
21569;SDS011;57598;50.888;4.746;2023-03-01T14:27:59;23.25;;;21.60;;
21569;SDS011;57598;50.888;4.746;2023-03-01T14:30:30;23.13;;;21.50;;
21569;SDS011;57598;50.888;4.746;2023-03-01T14:32:59;22.98;;;21.55;;
21569;SDS011;57598;50.888;4.746;2023-03-01T14:35:27;20.90;;;19.55;;
21569;SDS011;57598;50.888;4.746;2023-03-01T14:37:55;24.73;;;22.88;;
21569;SDS011;57598;50.888;4.746;2023-03-01T14:40:24;25.88;;;23.92;;
21569;SDS011;57598;50.888;4.746;2023-03-01T14:42:51;27.48;;;25.42;;
21569;SDS011;57598;50.888;4.746;2023-03-01T14:45:19;22.83;;;21.33;;
21569;SDS011;57598;50.888;4.746;2023-03-01T14:47:48;23.83;;;21.90;;
21569;SDS011;57598;50.888;4.746;2023-03-01T14:50:19;24.73;;;22.95;;
21569;SDS011;57598;50.888;4.746;2023-03-01T14:52:48;21.50;;;20.17;;
21569;SDS011;57598;50.888;4.746;2023-03-01T14:55:18;22.38;;;20.75;;
21569;SDS011;57598;50.888;4.746;2023-03-01T14:57:47;22.13;;;20.83;;
21569;SDS011;57598;50.888;4.746;2023-03-01T15:00:15;22.45;;;20.90;;
21569;SDS011;57598;50.888;4.746;2023-03-01T15:02:45;20.67;;;19.48;;
21569;SDS011;57598;50.888;4.746;2023-03-01T15:05:14;21.45;;;20.15;;
21569;SDS011;57598;50.888;4.746;2023-03-01T15:07:43;22.67;;;21.08;;
21569;SDS011;57598;50.888;4.746;2023-03-01T15:10:16;22.95;;;21.27;;
21569;SDS011;57598;50.888;4.746;2023-03-01T15:12:44;23.10;;;21.60;;
21569;SDS011;57598;50.888;4.746;2023-03-01T15:15:22;22.75;;;21.15;;
21569;SDS011;57598;50.888;4.746;2023-03-01T15:17:55;22.48;;;21.05;;
21569;SDS011;57598;50.888;4.746;2023-03-01T15:20:25;23.27;;;21.48;;
21569;SDS011;57598;50.888;4.746;2023-03-01T15:22:54;21.40;;;20.10;;
21569;SDS011;57598;50.888;4.746;2023-03-01T15:25:23;22.25;;;20.83;;
21569;SDS011;57598;50.888;4.746;2023-03-01T15:27:51;20.83;;;19.52;;
21569;SDS011;57598;50.888;4.746;2023-03-01T15:30:20;23.65;;;21.90;;
21569;SDS011;57598;50.888;4.746;2023-03-01T15:32:48;23.67;;;21.95;;
21569;SDS011;57598;50.888;4.746;2023-03-01T15:35:46;20.65;;;19.45;;
21569;SDS011;57598;50.888;4.746;2023-03-01T15:38:24;24.90;;;23.02;;
21569;SDS011;57598;50.888;4.746;2023-03-01T15:40:51;24.15;;;22.25;;
21569;SDS011;57598;50.888;4.746;2023-03-01T15:46:01;23.33;;;21.35;;
21569;SDS011;57598;50.888;4.746;2023-03-01T15:48:29;21.55;;;20.17;;
21569;SDS011;57598;50.888;4.746;2023-03-01T15:50:58;26.25;;;24.13;;
21569;SDS011;57598;50.888;4.746;2023-03-01T15:53:26;21.00;;;19.58;;
21569;SDS011;57598;50.888;4.746;2023-03-01T15:55:54;20.02;;;18.77;;
21569;SDS011;57598;50.888;4.746;2023-03-01T15:58:22;21.95;;;20.45;;
21569;SDS011;57598;50.888;4.746;2023-03-01T16:00:49;23.25;;;21.48;;
21569;SDS011;57598;50.888;4.746;2023-03-01T16:03:21;22.83;;;21.40;;
21569;SDS011;57598;50.888;4.746;2023-03-01T16:05:49;24.90;;;23.25;;
21569;SDS011;57598;50.888;4.746;2023-03-01T16:08:18;20.80;;;19.60;;
21569;SDS011;57598;50.888;4.746;2023-03-01T16:10:45;20.42;;;19.13;;
21569;SDS011;57598;50.888;4.746;2023-03-01T16:13:14;22.02;;;20.20;;
21569;SDS011;57598;50.888;4.746;2023-03-01T16:15:42;23.95;;;22.35;;
21569;SDS011;57598;50.888;4.746;2023-03-01T16:18:09;21.40;;;20.10;;
21569;SDS011;57598;50.888;4.746;2023-03-01T16:20:36;21.20;;;19.75;;
21569;SDS011;57598;50.888;4.746;2023-03-01T16:23:05;23.63;;;21.77;;
21569;SDS011;57598;50.888;4.746;2023-03-01T16:25:34;22.05;;;20.52;;
21569;SDS011;57598;50.888;4.746;2023-03-01T16:28:02;22.35;;;20.52;;
21569;SDS011;57598;50.888;4.746;2023-03-01T16:30:34;21.42;;;20.10;;
21569;SDS011;57598;50.888;4.746;2023-03-01T16:33:01;23.00;;;21.25;;
21569;SDS011;57598;50.888;4.746;2023-03-01T16:35:31;20.38;;;19.10;;
21569;SDS011;57598;50.888;4.746;2023-03-01T16:37:59;19.33;;;18.05;;
21569;SDS011;57598;50.888;4.746;2023-03-01T16:40:27;20.38;;;19.08;;
21569;SDS011;57598;50.888;4.746;2023-03-01T16:42:56;23.30;;;21.50;;
21569;SDS011;57598;50.888;4.746;2023-03-01T16:45:25;22.27;;;20.63;;
21569;SDS011;57598;50.888;4.746;2023-03-01T16:47:52;20.75;;;19.33;;
21569;SDS011;57598;50.888;4.746;2023-03-01T16:50:20;21.52;;;20.20;;
21569;SDS011;57598;50.888;4.746;2023-03-01T16:52:47;20.23;;;18.83;;
21569;SDS011;57598;50.888;4.746;2023-03-01T16:55:21;21.58;;;19.92;;
21569;SDS011;57598;50.888;4.746;2023-03-01T16:57:48;22.25;;;20.40;;
21569;SDS011;57598;50.888;4.746;2023-03-01T17:00:17;19.95;;;18.75;;
21569;SDS011;57598;50.888;4.746;2023-03-01T17:02:45;20.83;;;19.50;;
21569;SDS011;57598;50.888;4.746;2023-03-01T17:07:49;23.67;;;21.60;;
21569;SDS011;57598;50.888;4.746;2023-03-01T17:10:19;21.00;;;19.60;;
21569;SDS011;57598;50.888;4.746;2023-03-01T17:15:24;19.05;;;17.88;;
21569;SDS011;57598;50.888;4.746;2023-03-01T17:17:51;21.35;;;20.05;;
21569;SDS011;57598;50.888;4.746;2023-03-01T17:20:20;19.50;;;18.30;;
21569;SDS011;57598;50.888;4.746;2023-03-01T17:22:47;21.88;;;20.30;;
21569;SDS011;57598;50.888;4.746;2023-03-01T17:25:16;20.40;;;19.10;;
21569;SDS011;57598;50.888;4.746;2023-03-01T17:27:44;18.42;;;17.33;;
21569;SDS011;57598;50.888;4.746;2023-03-01T17:30:12;19.48;;;18.20;;
21569;SDS011;57598;50.888;4.746;2023-03-01T17:32:40;20.48;;;19.13;;
21569;SDS011;57598;50.888;4.746;2023-03-01T17:35:08;18.17;;;17.10;;
21569;SDS011;57598;50.888;4.746;2023-03-01T17:37:36;18.27;;;17.27;;
21569;SDS011;57598;50.888;4.746;2023-03-01T17:40:10;20.55;;;19.25;;
21569;SDS011;57598;50.888;4.746;2023-03-01T17:42:38;17.80;;;16.80;;
21569;SDS011;57598;50.888;4.746;2023-03-01T17:45:06;19.40;;;18.20;;
21569;SDS011;57598;50.888;4.746;2023-03-01T17:47:33;24.67;;;22.95;;
21569;SDS011;57598;50.888;4.746;2023-03-01T17:50:02;21.40;;;20.02;;
21569;SDS011;57598;50.888;4.746;2023-03-01T17:52:30;21.98;;;20.55;;
21569;SDS011;57598;50.888;4.746;2023-03-01T17:55:01;19.40;;;18.25;;
21569;SDS011;57598;50.888;4.746;2023-03-01T17:57:28;17.95;;;16.95;;
21569;SDS011;57598;50.888;4.746;2023-03-01T17:59:56;20.15;;;18.95;;
21569;SDS011;57598;50.888;4.746;2023-03-01T18:07:36;18.70;;;17.60;;
21569;SDS011;57598;50.888;4.746;2023-03-01T18:10:04;18.63;;;17.52;;
21569;SDS011;57598;50.888;4.746;2023-03-01T18:12:32;19.90;;;18.80;;
21569;SDS011;57598;50.888;4.746;2023-03-01T18:14:59;18.58;;;17.48;;
21569;SDS011;57598;50.888;4.746;2023-03-01T18:20:22;24.52;;;20.00;;